sensor_id;sensor_type;location;lat;lon;timestamp;pressure;altitude;pressure_sealevel;temperature;humidity
64298;BME280;50639;53.270;7.956;2023-12-20T00:01:19;101106.75;;;4.89;94.38
64298;BME280;50639;53.270;7.956;2023-12-20T00:03:44;101089.47;;;4.95;93.54
64298;BME280;50639;53.270;7.956;2023-12-20T00:06:10;101088.00;;;4.87;94.00
64298;BME280;50639;53.270;7.956;2023-12-20T00:08:36;101085.66;;;4.81;92.88
64298;BME280;50639;53.270;7.956;2023-12-20T00:11:01;101080.50;;;4.81;93.73
64298;BME280;50639;53.270;7.956;2023-12-20T00:13:27;101078.00;;;4.80;93.25
64298;BME280;50639;53.270;7.956;2023-12-20T00:15:52;101078.91;;;4.77;93.74
64298;BME280;50639;53.270;7.956;2023-12-20T00:18:18;101070.69;;;4.68;93.63
64298;BME280;50639;53.270;7.956;2023-12-20T00:20:44;101075.09;;;4.64;93.66
64298;BME280;50639;53.270;7.956;2023-12-20T00:23:09;101082.81;;;4.63;93.70
64298;BME280;50639;53.270;7.956;2023-12-20T00:25:35;101072.69;;;4.58;93.70
64298;BME280;50639;53.270;7.956;2023-12-20T00:28:01;101076.97;;;4.58;93.94
64298;BME280;50639;53.270;7.956;2023-12-20T00:30:27;101079.72;;;4.53;94.76
64298;BME280;50639;53.270;7.956;2023-12-20T00:32:53;101066.84;;;4.54;94.47
64298;BME280;50639;53.270;7.956;2023-12-20T00:35:18;101070.94;;;4.60;94.57
64298;BME280;50639;53.270;7.956;2023-12-20T00:37:44;101061.47;;;4.62;94.54
64298;BME280;50639;53.270;7.956;2023-12-20T00:40:10;101064.13;;;4.59;93.68
64298;BME280;50639;53.270;7.956;2023-12-20T00:42:35;101058.97;;;4.59;93.90
64298;BME280;50639;53.270;7.956;2023-12-20T00:45:01;101061.53;;;4.59;94.46
64298;BME280;50639;53.270;7.956;2023-12-20T00:47:28;101048.84;;;4.56;93.65
64298;BME280;50639;53.270;7.956;2023-12-20T00:49:53;101058.91;;;4.62;93.63
64298;BME280;50639;53.270;7.956;2023-12-20T00:52:19;101039.34;;;4.58;94.15
64298;BME280;50639;53.270;7.956;2023-12-20T00:54:44;101042.00;;;4.57;93.84
64298;BME280;50639;53.270;7.956;2023-12-20T00:57:10;101037.00;;;4.52;94.14
64298;BME280;50639;53.270;7.956;2023-12-20T00:59:35;101037.03;;;4.50;94.28
64298;BME280;50639;53.270;7.956;2023-12-20T01:02:01;101037.81;;;4.52;94.11
64298;BME280;50639;53.270;7.956;2023-12-20T01:04:27;101038.75;;;4.50;94.29
64298;BME280;50639;53.270;7.956;2023-12-20T01:06:52;101036.09;;;4.53;93.78
64298;BME280;50639;53.270;7.956;2023-12-20T01:09:18;101030.19;;;4.51;93.95
64298;BME280;50639;53.270;7.956;2023-12-20T01:11:44;101043.81;;;4.53;94.19
64298;BME280;50639;53.270;7.956;2023-12-20T01:14:11;101041.03;;;4.59;94.38
64298;BME280;50639;53.270;7.956;2023-12-20T01:16:37;101026.47;;;4.60;93.95
64298;BME280;50639;53.270;7.956;2023-12-20T01:19:02;101025.50;;;4.64;93.89
64298;BME280;50639;53.270;7.956;2023-12-20T01:21:28;101033.78;;;4.72;93.59
64298;BME280;50639;53.270;7.956;2023-12-20T01:23:53;101032.66;;;4.80;93.10
64298;BME280;50639;53.270;7.956;2023-12-20T01:26:18;101033.53;;;4.79;93.43
64298;BME280;50639;53.270;7.956;2023-12-20T01:28:44;101023.94;;;4.84;93.79
64298;BME280;50639;53.270;7.956;2023-12-20T01:31:09;101023.06;;;4.85;92.27
64298;BME280;50639;53.270;7.956;2023-12-20T01:33:35;101021.19;;;4.90;92.56
64298;BME280;50639;53.270;7.956;2023-12-20T01:36:00;101022.88;;;4.91;92.10
64298;BME280;50639;53.270;7.956;2023-12-20T01:38:25;101019.38;;;4.92;92.61
64298;BME280;50639;53.270;7.956;2023-12-20T01:40:51;101019.28;;;4.96;91.73
64298;BME280;50639;53.270;7.956;2023-12-20T01:43:16;101024.28;;;5.00;92.44
64298;BME280;50639;53.270;7.956;2023-12-20T01:45:42;101025.69;;;5.09;91.60
64298;BME280;50639;53.270;7.956;2023-12-20T01:48:08;101020.72;;;5.04;91.72
64298;BME280;50639;53.270;7.956;2023-12-20T01:50:37;101006.06;;;5.08;91.44
64298;BME280;50639;53.270;7.956;2023-12-20T01:53:05;101003.44;;;5.09;91.63
64298;BME280;50639;53.270;7.956;2023-12-20T01:55:34;100999.72;;;5.18;91.19
64298;BME280;50639;53.270;7.956;2023-12-20T01:58:00;101002.28;;;5.18;91.71
64298;BME280;50639;53.270;7.956;2023-12-20T02:00:27;100999.81;;;5.15;90.97
64298;BME280;50639;53.270;7.956;2023-12-20T02:02:54;100997.91;;;5.20;91.50
64298;BME280;50639;53.270;7.956;2023-12-20T02:05:22;100990.00;;;5.26;90.81
64298;BME280;50639;53.270;7.956;2023-12-20T02:07:47;100989.03;;;5.28;91.67
64298;BME280;50639;53.270;7.956;2023-12-20T02:10:13;100998.47;;;5.28;91.61
64298;BME280;50639;53.270;7.956;2023-12-20T02:12:38;101001.69;;;5.35;91.45
64298;BME280;50639;53.270;7.956;2023-12-20T02:15:04;100990.56;;;5.34;90.86
64298;BME280;50639;53.270;7.956;2023-12-20T02:17:31;100987.81;;;5.39;90.77
64298;BME280;50639;53.270;7.956;2023-12-20T02:19:57;100995.31;;;5.45;90.49
64298;BME280;50639;53.270;7.956;2023-12-20T02:22:22;100983.03;;;5.53;90.68
64298;BME280;50639;53.270;7.956;2023-12-20T02:24:48;100981.94;;;5.58;89.63
64298;BME280;50639;53.270;7.956;2023-12-20T02:27:15;100987.88;;;5.60;90.21
64298;BME280;50639;53.270;7.956;2023-12-20T02:29:43;100985.13;;;5.65;89.93
64298;BME280;50639;53.270;7.956;2023-12-20T02:32:08;100975.56;;;5.68;89.83
64298;BME280;50639;53.270;7.956;2023-12-20T02:34:33;100980.81;;;5.65;89.92
64298;BME280;50639;53.270;7.956;2023-12-20T02:36:59;100967.19;;;5.63;89.71
64298;BME280;50639;53.270;7.956;2023-12-20T02:39:24;100965.66;;;5.59;89.63
64298;BME280;50639;53.270;7.956;2023-12-20T02:41:50;100964.06;;;5.55;90.21
64298;BME280;50639;53.270;7.956;2023-12-20T02:44:15;100958.94;;;5.55;89.51
64298;BME280;50639;53.270;7.956;2023-12-20T02:46:40;100961.22;;;5.63;89.97
64298;BME280;50639;53.270;7.956;2023-12-20T02:49:07;100962.63;;;5.72;90.09
64298;BME280;50639;53.270;7.956;2023-12-20T02:51:32;100959.28;;;5.70;89.70
64298;BME280;50639;53.270;7.956;2023-12-20T02:53:57;100947.22;;;5.72;89.52
64298;BME280;50639;53.270;7.956;2023-12-20T02:56:23;100941.97;;;5.73;90.06
64298;BME280;50639;53.270;7.956;2023-12-20T02:58:48;100925.72;;;5.73;89.86
64298;BME280;50639;53.270;7.956;2023-12-20T03:01:14;100930.13;;;5.71;90.29
64298;BME280;50639;53.270;7.956;2023-12-20T03:03:39;100927.53;;;5.71;90.34
64298;BME280;50639;53.270;7.956;2023-12-20T03:06:05;100934.56;;;5.65;90.63
64298;BME280;50639;53.270;7.956;2023-12-20T03:08:30;100934.41;;;5.70;90.28
64298;BME280;50639;53.270;7.956;2023-12-20T03:10:55;100929.97;;;5.74;89.53
64298;BME280;50639;53.270;7.956;2023-12-20T03:13:21;100922.16;;;5.77;89.43
64298;BME280;50639;53.270;7.956;2023-12-20T03:15:46;100929.09;;;5.75;89.40
64298;BME280;50639;53.270;7.956;2023-12-20T03:18:11;100921.00;;;5.84;89.07
64298;BME280;50639;53.270;7.956;2023-12-20T03:20:37;100921.81;;;5.86;89.07
64298;BME280;50639;53.270;7.956;2023-12-20T03:23:03;100914.03;;;5.87;89.06
64298;BME280;50639;53.270;7.956;2023-12-20T03:25:29;100906.38;;;5.86;89.24
64298;BME280;50639;53.270;7.956;2023-12-20T03:27:54;100911.31;;;5.92;89.18
64298;BME280;50639;53.270;7.956;2023-12-20T03:30:19;100911.19;;;5.95;89.01
64298;BME280;50639;53.270;7.956;2023-12-20T03:32:45;100912.91;;;5.94;89.20
64298;BME280;50639;53.270;7.956;2023-12-20T03:35:11;100907.06;;;5.91;89.47
64298;BME280;50639;53.270;7.956;2023-12-20T03:37:39;100898.59;;;5.89;88.64
64298;BME280;50639;53.270;7.956;2023-12-20T03:40:05;100902.34;;;5.80;89.22
64298;BME280;50639;53.270;7.956;2023-12-20T03:42:31;100905.00;;;5.77;89.11
64298;BME280;50639;53.270;7.956;2023-12-20T03:44:56;100906.63;;;5.80;89.20
64298;BME280;50639;53.270;7.956;2023-12-20T03:47:22;100903.38;;;5.75;89.01
64298;BME280;50639;53.270;7.956;2023-12-20T03:49:47;100895.94;;;5.68;88.71
64298;BME280;50639;53.270;7.956;2023-12-20T03:52:12;100885.81;;;5.64;89.02
64298;BME280;50639;53.270;7.956;2023-12-20T03:54:38;100884.06;;;5.64;89.04
64298;BME280;50639;53.270;7.956;2023-12-20T03:57:06;100885.16;;;5.59;88.82
64298;BME280;50639;53.270;7.956;2023-12-20T03:59:35;100882.50;;;5.62;88.62
64298;BME280;50639;53.270;7.956;2023-12-20T04:02:01;100884.91;;;5.65;88.37
64298;BME280;50639;53.270;7.956;2023-12-20T04:04:27;100872.13;;;5.63;88.81
64298;BME280;50639;53.270;7.956;2023-12-20T04:06:52;100872.25;;;5.60;89.19
64298;BME280;50639;53.270;7.956;2023-12-20T04:09:18;100876.81;;;5.54;88.81
64298;BME280;50639;53.270;7.956;2023-12-20T04:11:43;100877.09;;;5.46;89.01
64298;BME280;50639;53.270;7.956;2023-12-20T04:14:09;100891.06;;;5.39;89.62
64298;BME280;50639;53.270;7.956;2023-12-20T04:16:35;100888.38;;;5.42;88.98
64298;BME280;50639;53.270;7.956;2023-12-20T04:19:00;100893.34;;;5.47;89.36
64298;BME280;50639;53.270;7.956;2023-12-20T04:21:26;100887.09;;;5.54;88.88
64298;BME280;50639;53.270;7.956;2023-12-20T04:23:52;100896.75;;;5.69;89.08
64298;BME280;50639;53.270;7.956;2023-12-20T04:26:17;100903.28;;;5.78;88.96
64298;BME280;50639;53.270;7.956;2023-12-20T04:28:42;100888.63;;;5.80;88.76
64298;BME280;50639;53.270;7.956;2023-12-20T04:31:08;100880.84;;;5.81;89.03
64298;BME280;50639;53.270;7.956;2023-12-20T04:33:33;100882.34;;;5.87;88.72
64298;BME280;50639;53.270;7.956;2023-12-20T04:35:59;100879.66;;;5.90;88.70
64298;BME280;50639;53.270;7.956;2023-12-20T04:38:25;100868.56;;;5.89;88.82
64298;BME280;50639;53.270;7.956;2023-12-20T04:40:51;100860.06;;;5.87;89.20
64298;BME280;50639;53.270;7.956;2023-12-20T04:43:16;100876.50;;;5.83;89.65
64298;BME280;50639;53.270;7.956;2023-12-20T04:45:42;100852.13;;;5.72;89.42
64298;BME280;50639;53.270;7.956;2023-12-20T04:48:07;100855.06;;;5.62;89.42
64298;BME280;50639;53.270;7.956;2023-12-20T04:50:33;100847.09;;;5.68;89.90
64298;BME280;50639;53.270;7.956;2023-12-20T04:52:58;100857.28;;;5.72;89.90
64298;BME280;50639;53.270;7.956;2023-12-20T04:55:24;100846.16;;;5.71;89.29
64298;BME280;50639;53.270;7.956;2023-12-20T04:57:49;100858.22;;;5.69;89.69
64298;BME280;50639;53.270;7.956;2023-12-20T05:00:15;100857.28;;;5.72;89.62
64298;BME280;50639;53.270;7.956;2023-12-20T05:02:40;100851.47;;;5.66;90.04
64298;BME280;50639;53.270;7.956;2023-12-20T05:05:06;100850.69;;;5.64;89.21
64298;BME280;50639;53.270;7.956;2023-12-20T05:07:32;100852.31;;;5.67;89.28
64298;BME280;50639;53.270;7.956;2023-12-20T05:09:58;100841.97;;;5.68;88.79
64298;BME280;50639;53.270;7.956;2023-12-20T05:12:23;100851.94;;;5.76;89.15
64298;BME280;50639;53.270;7.956;2023-12-20T05:14:49;100842.25;;;5.83;88.65
64298;BME280;50639;53.270;7.956;2023-12-20T05:17:14;100840.22;;;5.91;88.79
64298;BME280;50639;53.270;7.956;2023-12-20T05:19:39;100840.75;;;5.99;88.09
64298;BME280;50639;53.270;7.956;2023-12-20T05:22:05;100850.91;;;6.02;87.78
64298;BME280;50639;53.270;7.956;2023-12-20T05:24:30;100849.28;;;5.99;88.62
64298;BME280;50639;53.270;7.956;2023-12-20T05:26:56;100859.56;;;5.99;88.26
64298;BME280;50639;53.270;7.956;2023-12-20T05:29:21;100851.34;;;5.91;87.90
64298;BME280;50639;53.270;7.956;2023-12-20T05:31:46;100851.50;;;5.87;88.35
64298;BME280;50639;53.270;7.956;2023-12-20T05:34:12;100837.09;;;5.83;89.06
64298;BME280;50639;53.270;7.956;2023-12-20T05:36:37;100847.22;;;5.87;88.77
64298;BME280;50639;53.270;7.956;2023-12-20T05:39:04;100846.25;;;5.90;89.13
64298;BME280;50639;53.270;7.956;2023-12-20T05:41:30;100852.84;;;5.97;89.42
64298;BME280;50639;53.270;7.956;2023-12-20T05:43:56;100843.97;;;6.04;89.42
64298;BME280;50639;53.270;7.956;2023-12-20T05:46:23;100835.16;;;6.10;89.24
64298;BME280;50639;53.270;7.956;2023-12-20T05:48:49;100835.22;;;6.08;88.96
64298;BME280;50639;53.270;7.956;2023-12-20T05:51:16;100838.69;;;6.07;88.66
64298;BME280;50639;53.270;7.956;2023-12-20T05:53:42;100828.56;;;6.04;89.13
64298;BME280;50639;53.270;7.956;2023-12-20T05:56:07;100831.97;;;6.04;88.71
64298;BME280;50639;53.270;7.956;2023-12-20T05:58:33;100829.56;;;6.00;89.20
64298;BME280;50639;53.270;7.956;2023-12-20T06:00:59;100831.97;;;6.04;89.66
64298;BME280;50639;53.270;7.956;2023-12-20T06:03:24;100828.81;;;5.98;89.35
64298;BME280;50639;53.270;7.956;2023-12-20T06:05:49;100836.38;;;6.01;89.04
64298;BME280;50639;53.270;7.956;2023-12-20T06:08:15;100816.03;;;5.96;89.26
64298;BME280;50639;53.270;7.956;2023-12-20T06:10:40;100820.13;;;6.00;89.59
64298;BME280;50639;53.270;7.956;2023-12-20T06:13:06;100806.19;;;6.06;89.86
64298;BME280;50639;53.270;7.956;2023-12-20T06:15:32;100814.47;;;6.13;89.69
64298;BME280;50639;53.270;7.956;2023-12-20T06:17:58;100810.16;;;6.13;89.20
64298;BME280;50639;53.270;7.956;2023-12-20T06:20:24;100807.22;;;6.22;89.01
64298;BME280;50639;53.270;7.956;2023-12-20T06:22:50;100801.34;;;6.19;89.01
64298;BME280;50639;53.270;7.956;2023-12-20T06:25:16;100811.25;;;6.28;89.45
64298;BME280;50639;53.270;7.956;2023-12-20T06:27:41;100797.38;;;6.32;89.33
64298;BME280;50639;53.270;7.956;2023-12-20T06:30:07;100796.59;;;6.30;89.80
64298;BME280;50639;53.270;7.956;2023-12-20T06:32:34;100791.63;;;6.25;90.26
64298;BME280;50639;53.270;7.956;2023-12-20T06:35:00;100786.50;;;6.25;90.19
64298;BME280;50639;53.270;7.956;2023-12-20T06:37:25;100791.56;;;6.27;90.28
64298;BME280;50639;53.270;7.956;2023-12-20T06:39:50;100779.56;;;6.27;89.90
64298;BME280;50639;53.270;7.956;2023-12-20T06:42:16;100779.28;;;6.33;89.87
64298;BME280;50639;53.270;7.956;2023-12-20T06:44:41;100775.06;;;6.32;89.72
64298;BME280;50639;53.270;7.956;2023-12-20T06:47:07;100762.25;;;6.31;90.29
64298;BME280;50639;53.270;7.956;2023-12-20T06:49:33;100772.59;;;6.29;89.94
64298;BME280;50639;53.270;7.956;2023-12-20T06:51:58;100778.13;;;6.40;89.52
64298;BME280;50639;53.270;7.956;2023-12-20T06:54:23;100773.94;;;6.38;89.62
64298;BME280;50639;53.270;7.956;2023-12-20T06:56:49;100758.38;;;6.41;90.17
64298;BME280;50639;53.270;7.956;2023-12-20T06:59:14;100767.06;;;6.38;90.30
64298;BME280;50639;53.270;7.956;2023-12-20T07:01:41;100768.09;;;6.34;89.84
64298;BME280;50639;53.270;7.956;2023-12-20T07:04:06;100763.44;;;6.42;90.30
64298;BME280;50639;53.270;7.956;2023-12-20T07:06:31;100762.69;;;6.40;89.88
64298;BME280;50639;53.270;7.956;2023-12-20T07:08:57;100756.66;;;6.41;90.44
64298;BME280;50639;53.270;7.956;2023-12-20T07:11:22;100742.78;;;6.44;90.78
64298;BME280;50639;53.270;7.956;2023-12-20T07:13:48;100744.41;;;6.47;90.78
64298;BME280;50639;53.270;7.956;2023-12-20T07:16:14;100739.88;;;6.52;90.35
64298;BME280;50639;53.270;7.956;2023-12-20T07:18:40;100729.94;;;6.44;90.00
64298;BME280;50639;53.270;7.956;2023-12-20T07:21:05;100740.22;;;6.44;90.18
64298;BME280;50639;53.270;7.956;2023-12-20T07:23:33;100730.56;;;6.49;90.59
64298;BME280;50639;53.270;7.956;2023-12-20T07:25:58;100737.47;;;6.49;90.00
64298;BME280;50639;53.270;7.956;2023-12-20T07:28:24;100727.94;;;6.51;90.00
64298;BME280;50639;53.270;7.956;2023-12-20T07:30:50;100726.19;;;6.51;90.81
64298;BME280;50639;53.270;7.956;2023-12-20T07:33:15;100725.38;;;6.51;90.15
64298;BME280;50639;53.270;7.956;2023-12-20T07:35:41;100738.31;;;6.49;90.78
64298;BME280;50639;53.270;7.956;2023-12-20T07:38:06;100730.56;;;6.49;90.32
64298;BME280;50639;53.270;7.956;2023-12-20T07:40:32;100736.56;;;6.50;90.86
64298;BME280;50639;53.270;7.956;2023-12-20T07:42:57;100734.81;;;6.50;91.31
64298;BME280;50639;53.270;7.956;2023-12-20T07:45:23;100718.69;;;6.47;91.24
64298;BME280;50639;53.270;7.956;2023-12-20T07:47:48;100725.50;;;6.48;91.49
64298;BME280;50639;53.270;7.956;2023-12-20T07:50:15;100716.81;;;6.50;91.13
64298;BME280;50639;53.270;7.956;2023-12-20T07:52:40;100723.28;;;6.59;90.49
64298;BME280;50639;53.270;7.956;2023-12-20T07:55:06;100725.03;;;6.58;90.49
64298;BME280;50639;53.270;7.956;2023-12-20T07:57:32;100723.41;;;6.56;90.46
64298;BME280;50639;53.270;7.956;2023-12-20T07:59:57;100704.56;;;6.55;91.07
64298;BME280;50639;53.270;7.956;2023-12-20T08:02:23;100714.63;;;6.60;90.85
64298;BME280;50639;53.270;7.956;2023-12-20T08:04:48;100726.28;;;6.68;90.96
64298;BME280;50639;53.270;7.956;2023-12-20T08:07:13;100710.25;;;6.62;90.64
64298;BME280;50639;53.270;7.956;2023-12-20T08:09:39;100721.31;;;6.64;91.04
64298;BME280;50639;53.270;7.956;2023-12-20T08:12:05;100711.44;;;6.73;90.39
64298;BME280;50639;53.270;7.956;2023-12-20T08:14:30;100719.72;;;6.80;90.76
64298;BME280;50639;53.270;7.956;2023-12-20T08:16:56;100709.56;;;6.77;91.14
64298;BME280;50639;53.270;7.956;2023-12-20T08:19:22;100704.31;;;6.78;90.52
64298;BME280;50639;53.270;7.956;2023-12-20T08:21:47;100706.16;;;6.76;90.02
64298;BME280;50639;53.270;7.956;2023-12-20T08:24:13;100709.63;;;6.75;91.20
64298;BME280;50639;53.270;7.956;2023-12-20T08:26:38;100703.84;;;6.70;90.94
64298;BME280;50639;53.270;7.956;2023-12-20T08:29:03;100705.53;;;6.71;91.23
64298;BME280;50639;53.270;7.956;2023-12-20T08:31:29;100711.38;;;6.75;90.70
64298;BME280;50639;53.270;7.956;2023-12-20T08:33:54;100706.91;;;6.78;90.61
64298;BME280;50639;53.270;7.956;2023-12-20T08:36:21;100698.00;;;6.86;90.79
64298;BME280;50639;53.270;7.956;2023-12-20T08:38:48;100707.38;;;6.87;90.17
64298;BME280;50639;53.270;7.956;2023-12-20T08:41:13;100697.47;;;6.96;89.66
64298;BME280;50639;53.270;7.956;2023-12-20T08:43:38;100694.06;;;6.96;89.46
64298;BME280;50639;53.270;7.956;2023-12-20T08:46:07;100686.28;;;6.97;89.20
64298;BME280;50639;53.270;7.956;2023-12-20T08:48:35;100693.34;;;6.94;89.35
64298;BME280;50639;53.270;7.956;2023-12-20T08:51:00;100683.25;;;6.89;89.74
64298;BME280;50639;53.270;7.956;2023-12-20T08:53:26;100770.41;;;6.78;90.32
64298;BME280;50639;53.270;7.956;2023-12-20T08:55:52;100795.97;;;5.62;93.71
64298;BME280;50639;53.270;7.956;2023-12-20T08:58:17;100787.84;;;5.08;95.49
64298;BME280;50639;53.270;7.956;2023-12-20T09:00:43;100784.63;;;5.03;97.23
64298;BME280;50639;53.270;7.956;2023-12-20T09:03:09;100784.22;;;4.91;97.37
64298;BME280;50639;53.270;7.956;2023-12-20T09:05:34;100796.94;;;4.93;97.02
64298;BME280;50639;53.270;7.956;2023-12-20T09:07:59;100788.31;;;4.96;97.91
64298;BME280;50639;53.270;7.956;2023-12-20T09:10:25;100794.34;;;4.95;98.52
64298;BME280;50639;53.270;7.956;2023-12-20T09:12:51;100798.81;;;4.89;97.89
64298;BME280;50639;53.270;7.956;2023-12-20T09:15:17;100797.38;;;4.82;98.34
64298;BME280;50639;53.270;7.956;2023-12-20T09:17:42;100795.75;;;4.80;98.03
64298;BME280;50639;53.270;7.956;2023-12-20T09:20:09;100797.91;;;4.67;98.37
64298;BME280;50639;53.270;7.956;2023-12-20T09:22:34;100799.72;;;4.65;98.58
64298;BME280;50639;53.270;7.956;2023-12-20T09:25:00;100804.78;;;4.67;98.57
64298;BME280;50639;53.270;7.956;2023-12-20T09:27:27;100795.47;;;4.64;98.06
64298;BME280;50639;53.270;7.956;2023-12-20T09:29:52;100801.16;;;4.72;98.19
64298;BME280;50639;53.270;7.956;2023-12-20T09:32:19;100802.84;;;4.73;98.34
64298;BME280;50639;53.270;7.956;2023-12-20T09:34:46;100802.72;;;4.76;98.65
64298;BME280;50639;53.270;7.956;2023-12-20T09:37:13;100821.47;;;4.78;98.91
64298;BME280;50639;53.270;7.956;2023-12-20T09:39:38;100790.66;;;4.78;98.17
64298;BME280;50639;53.270;7.956;2023-12-20T09:42:04;100763.13;;;4.83;97.83
64298;BME280;50639;53.270;7.956;2023-12-20T09:44:31;100793.84;;;4.85;98.38
64298;BME280;50639;53.270;7.956;2023-12-20T09:46:57;100782.03;;;4.81;97.46
64298;BME280;50639;53.270;7.956;2023-12-20T09:49:22;100785.19;;;4.87;97.96
64298;BME280;50639;53.270;7.956;2023-12-20T09:51:50;100790.22;;;4.90;98.20
64298;BME280;50639;53.270;7.956;2023-12-20T09:54:20;100798.56;;;4.96;97.16
64298;BME280;50639;53.270;7.956;2023-12-20T09:56:46;100810.72;;;4.92;97.87
64298;BME280;50639;53.270;7.956;2023-12-20T09:59:12;100814.72;;;4.99;97.16
64298;BME280;50639;53.270;7.956;2023-12-20T10:01:39;100811.13;;;5.03;97.85
64298;BME280;50639;53.270;7.956;2023-12-20T10:04:06;100806.97;;;5.01;97.89
64298;BME280;50639;53.270;7.956;2023-12-20T10:06:40;100811.41;;;4.96;97.41
64298;BME280;50639;53.270;7.956;2023-12-20T10:09:06;100812.97;;;5.00;97.11
64298;BME280;50639;53.270;7.956;2023-12-20T10:11:32;100816.94;;;5.08;97.17
64298;BME280;50639;53.270;7.956;2023-12-20T10:14:00;100825.56;;;5.06;97.02
64298;BME280;50639;53.270;7.956;2023-12-20T10:16:29;100823.66;;;5.11;96.74
64298;BME280;50639;53.270;7.956;2023-12-20T10:18:56;100842.31;;;5.16;96.26
64298;BME280;50639;53.270;7.956;2023-12-20T10:21:25;100832.28;;;5.10;95.52
64298;BME280;50639;53.270;7.956;2023-12-20T10:23:57;100833.78;;;5.15;95.21
64298;BME280;50639;53.270;7.956;2023-12-20T10:26:27;100832.75;;;5.19;95.72
64298;BME280;50639;53.270;7.956;2023-12-20T10:28:54;100831.69;;;5.25;95.30
64298;BME280;50639;53.270;7.956;2023-12-20T10:31:30;100824.28;;;5.17;94.90
64298;BME280;50639;53.270;7.956;2023-12-20T10:33:57;100815.06;;;5.12;93.80
64298;BME280;50639;53.270;7.956;2023-12-20T10:36:27;100809.88;;;5.13;93.85
64298;BME280;50639;53.270;7.956;2023-12-20T10:38:54;100804.69;;;5.15;93.92
64298;BME280;50639;53.270;7.956;2023-12-20T10:41:29;100809.59;;;5.21;94.27
64298;BME280;50639;53.270;7.956;2023-12-20T10:43:59;100819.56;;;5.28;94.45
64298;BME280;50639;53.270;7.956;2023-12-20T10:46:25;100811.63;;;5.35;93.66
64298;BME280;50639;53.270;7.956;2023-12-20T10:48:53;100810.56;;;5.40;94.34
64298;BME280;50639;53.270;7.956;2023-12-20T10:51:20;100801.13;;;5.41;93.59
64298;BME280;50639;53.270;7.956;2023-12-20T10:53:47;100811.66;;;5.55;93.55
64298;BME280;50639;53.270;7.956;2023-12-20T10:56:16;100802.91;;;5.60;93.00
64298;BME280;50639;53.270;7.956;2023-12-20T10:58:42;100804.50;;;5.63;92.20
64298;BME280;50639;53.270;7.956;2023-12-20T11:01:13;100796.56;;;5.69;92.22
64298;BME280;50639;53.270;7.956;2023-12-20T11:03:48;100787.91;;;5.72;92.44
64298;BME280;50639;53.270;7.956;2023-12-20T11:09:24;100784.22;;;5.77;92.71
64298;BME280;50639;53.270;7.956;2023-12-20T11:14:46;100774.16;;;5.93;92.43
64298;BME280;50639;53.270;7.956;2023-12-20T11:17:12;100767.75;;;6.03;92.14
64298;BME280;50639;53.270;7.956;2023-12-20T11:22:29;100773.84;;;6.21;91.49
64298;BME280;50639;53.270;7.956;2023-12-20T11:25:02;100770.53;;;6.37;92.10
64298;BME280;50639;53.270;7.956;2023-12-20T11:27:28;100761.44;;;6.49;91.26
64298;BME280;50639;53.270;7.956;2023-12-20T11:29:56;100766.53;;;6.69;91.02
64298;BME280;50639;53.270;7.956;2023-12-20T11:35:01;100762.69;;;6.97;89.58
64298;BME280;50639;53.270;7.956;2023-12-20T11:37:41;100767.41;;;7.06;87.49
64298;BME280;50639;53.270;7.956;2023-12-20T11:40:17;100768.59;;;7.17;86.92
64298;BME280;50639;53.270;7.956;2023-12-20T11:42:48;100765.44;;;7.30;85.82
64298;BME280;50639;53.270;7.956;2023-12-20T11:45:18;100763.00;;;7.27;85.17
64298;BME280;50639;53.270;7.956;2023-12-20T11:47:47;100772.91;;;6.98;86.01
64298;BME280;50639;53.270;7.956;2023-12-20T11:50:15;100776.63;;;6.93;84.60
64298;BME280;50639;53.270;7.956;2023-12-20T11:52:41;100773.75;;;6.80;84.87
64298;BME280;50639;53.270;7.956;2023-12-20T11:55:06;100765.38;;;6.76;84.89
64298;BME280;50639;53.270;7.956;2023-12-20T11:57:33;100774.53;;;6.82;84.15
64298;BME280;50639;53.270;7.956;2023-12-20T11:59:59;100762.44;;;6.84;84.61
64298;BME280;50639;53.270;7.956;2023-12-20T12:02:24;100771.75;;;6.87;84.69
64298;BME280;50639;53.270;7.956;2023-12-20T12:04:50;100760.59;;;6.86;84.66
64298;BME280;50639;53.270;7.956;2023-12-20T12:07:18;100773.34;;;6.70;85.24
64298;BME280;50639;53.270;7.956;2023-12-20T12:09:44;100774.66;;;6.60;85.52
64298;BME280;50639;53.270;7.956;2023-12-20T12:12:12;100768.47;;;6.46;86.09
64298;BME280;50639;53.270;7.956;2023-12-20T12:14:37;100787.00;;;6.33;86.58
64298;BME280;50639;53.270;7.956;2023-12-20T12:17:03;100767.41;;;6.11;87.28
64298;BME280;50639;53.270;7.956;2023-12-20T12:19:29;100760.38;;;5.95;87.71
64298;BME280;50639;53.270;7.956;2023-12-20T12:22:07;100769.31;;;5.85;87.28
64298;BME280;50639;53.270;7.956;2023-12-20T12:24:34;100761.16;;;5.76;86.79
64298;BME280;50639;53.270;7.956;2023-12-20T12:27:00;100755.06;;;5.78;87.42
64298;BME280;50639;53.270;7.956;2023-12-20T12:29:25;100760.16;;;5.80;87.56
64298;BME280;50639;53.270;7.956;2023-12-20T12:31:51;100760.00;;;5.83;86.87
64298;BME280;50639;53.270;7.956;2023-12-20T12:34:17;100748.75;;;5.85;86.84
64298;BME280;50639;53.270;7.956;2023-12-20T12:36:43;100767.50;;;5.89;86.22
64298;BME280;50639;53.270;7.956;2023-12-20T12:39:08;100757.06;;;5.92;86.44
64298;BME280;50639;53.270;7.956;2023-12-20T12:41:35;100765.56;;;5.94;86.30
64298;BME280;50639;53.270;7.956;2023-12-20T12:44:00;100755.16;;;5.97;86.30
64298;BME280;50639;53.270;7.956;2023-12-20T12:46:25;100746.22;;;6.06;85.93
64298;BME280;50639;53.270;7.956;2023-12-20T12:48:51;100755.19;;;6.16;86.30
64298;BME280;50639;53.270;7.956;2023-12-20T12:51:16;100751.47;;;6.23;86.20
64298;BME280;50639;53.270;7.956;2023-12-20T12:53:42;100743.53;;;6.27;85.84
64298;BME280;50639;53.270;7.956;2023-12-20T12:56:07;100745.09;;;6.31;86.02
64298;BME280;50639;53.270;7.956;2023-12-20T12:58:33;100742.84;;;6.24;86.16
64298;BME280;50639;53.270;7.956;2023-12-20T13:00:59;100738.56;;;6.24;86.33
64298;BME280;50639;53.270;7.956;2023-12-20T13:03:24;100742.59;;;6.30;85.75
64298;BME280;50639;53.270;7.956;2023-12-20T13:05:50;100745.03;;;6.33;85.07